Concrete, WA (98237)

3:42 PM PST on December 08, 2016 (GMT -0800)
Challenger Ridge | | Change Station
Active Advisory: Winter Weather Advisory

Elev 335 ft 48.54 °N, 121.80 °W | Updated 1 minute ago

Clear
Clear
33.6 °F
Feels Like 34 °F
N
2.7
Wind Variable Wind from NNE

Today
High -- | Low -- °F
--% Chance of Precip.
Yesterday
High -- | Low -- °F
Precip. -- in
Pressure 30.00 in
Visibility 10.0 miles
Clouds Clear
Windchill 34 °F
Dew Point 14 °F
Humidity 44%
Rainfall 0.00 in
Snow Depth Not available.
7:46 AM 4:11 PM
Waxing Gibbous, 68% visible
METAR KAWO 082335Z AUTO 04004KT 10SM CLR 00/M09 A3000 RMK AO1
Pressure 30.00 in
Visibility 10.0 miles
Clouds Clear
Windchill 34 °F
Dew Point 14 °F
Humidity 44%
Rainfall 0.00 in
Snow Depth Not available.
7:46 AM 4:11 PM
Waxing Gibbous, 68% visible
METAR KAWO 082335Z AUTO 04004KT 10SM CLR 00/M09 A3000 RMK AO1

10-Day Weather Forecast

Almanac

Astronomy

Dec. 08, 2016 Rise Set
Actual Time
Civil Twilight
Nautical Twilight
Astronomical Twilight
Moon
Length of Visible Light
Length of Day
Tomorrow will be .
, % of the Moon is Illuminated

Today's Extremes

State Highs State Lows

Community

WunderPhotos

Upload Photos

1,956,277 photos uploaded!

WunderBlog® & News

Nearby

Air Quality

  Air Quality AQ Index Pollutant
Not available.

Snow Depth

Station Depth Elevation

Earthquake Activity

City Distance Mag. Time & Date
Minimum magnitude displayed is 2.5.

Coastal Water Temperatures

Place Temperature

Stations

Nearby Weather Stations

Station Location Temp. Windchill Dew Point Humidity Wind Precip. Elev Updated Type
                   

Watches & Warnings

Winter Weather Advisory
Issued: 12:25 PM PST Dec. 8, 2016 – National Weather Service

... Winter Weather Advisory remains in effect from 4 PM this
afternoon to 3 am PST Saturday...

* timing... a weather system will move through western Washington
tonight bringing snow to the mountains. Strong east winds in
combination with this expected snow may reduce visibility at
times.

* Accumulation... periods of snow will result in 4 to 8 inches of
snow tonight.

* Main impact... travel will affected as roadway surface conditions
may become slippery and winds combined with snow may reduce
visibility at times.

Precautionary/preparedness actions...

People planning on travel late Thursday afternoon and night should
expect winter driving conditions.